Pomona, Illinois
Current Conditions -  °F | °C
As of 7:52 AM on Friday 31 Oct 2014 (Local Time) from KMDH Reporting Station
Overcast Overcast  
Wind Chill:   Ceiling: 6500
Heat Index:   Visibility: 10mi
Dew Point:   Wind: 12mph
Humidity: 83%   Direction: 350°N
Pressure: 30.13"   Gusts: 21mph
Location:  37.63°N, 89.34°W
Report Text: KMDH 311252Z 35010G18KT 10SM FEW014 SCT047 OVC065 09/06 A3013 RMK AO2 SLP201 T00890061
Loading
Personal Weather Stations






























Interactive Weather Map
Tropical Storm Tracking
New forecast layout! Learn more

10-Day Weather Forecast

Advertisements
Track Severe Weather on mobile